createdAt,value
2022-09-21T00:01:06.650Z,3.07
2022-09-21T00:03:33.555Z,3.03
2022-09-21T00:06:08.085Z,3.13
2022-09-21T00:08:34.850Z,5.13
2022-09-21T00:11:01.605Z,4.13
2022-09-21T00:13:28.418Z,3.27
2022-09-21T00:15:58.048Z,2.87
2022-09-21T00:18:25.335Z,3.87
2022-09-21T00:20:55.206Z,3.27
2022-09-21T00:23:21.660Z,3.03
2022-09-21T00:25:48.244Z,5.03
2022-09-21T00:28:14.694Z,3.10
2022-09-21T00:30:41.285Z,3.40
2022-09-21T00:33:07.884Z,2.90
2022-09-21T00:35:34.588Z,2.47
2022-09-21T00:38:02.478Z,3.37
2022-09-21T00:40:29.886Z,2.20
2022-09-21T00:43:16.167Z,2.80
2022-09-21T00:45:44.665Z,3.00
2022-09-21T00:48:11.290Z,4.20
2022-09-21T00:50:44.325Z,2.93
2022-09-21T00:53:11.649Z,4.20
2022-09-21T00:55:41.924Z,3.87
2022-09-21T00:58:15.657Z,3.87
2022-09-21T01:00:43.418Z,3.53
2022-09-21T01:03:11.168Z,3.10
2022-09-21T01:05:37.608Z,4.70
2022-09-21T01:08:05.732Z,2.60
2022-09-21T01:10:52.276Z,3.20
2022-09-21T01:13:30.976Z,2.33
2022-09-21T01:16:13.904Z,3.20
2022-09-21T01:18:54.024Z,3.40
2022-09-21T01:21:33.486Z,4.43
2022-09-21T01:24:47.830Z,4.10
2022-09-21T01:27:38.374Z,3.83
2022-09-21T01:30:09.067Z,4.30
2022-09-21T01:32:39.273Z,5.33
2022-09-21T01:35:08.405Z,4.40
2022-09-21T01:37:41.223Z,4.10
2022-09-21T01:40:12.194Z,5.33
2022-09-21T01:42:40.206Z,5.03
2022-09-21T01:45:07.736Z,4.33
2022-09-21T01:47:36.347Z,3.40
2022-09-21T01:50:06.532Z,3.90
2022-09-21T01:52:38.557Z,3.97
2022-09-21T01:55:09.698Z,4.00
2022-09-21T01:57:43.689Z,5.63
2022-09-21T02:00:10.538Z,3.17
2022-09-21T02:02:51.020Z,3.50
2022-09-21T02:05:19.510Z,5.83
2022-09-21T02:07:47.351Z,4.47
2022-09-21T02:10:21.009Z,4.50
2022-09-21T02:12:48.704Z,3.20
2022-09-21T02:15:15.259Z,3.97
2022-09-21T02:18:06.246Z,5.67
2022-09-21T02:20:37.030Z,3.43
2022-09-21T02:23:22.220Z,3.37
2022-09-21T02:26:01.976Z,3.23
2022-09-21T02:28:28.450Z,3.27
2022-09-21T02:31:03.459Z,3.67
2022-09-21T02:33:34.913Z,4.10
2022-09-21T02:36:09.132Z,5.67
2022-09-21T02:38:46.220Z,4.17
2022-09-21T02:41:34.534Z,3.93
2022-09-21T02:44:05.225Z,3.40
2022-09-21T02:46:36.613Z,3.20
2022-09-21T02:49:07.417Z,3.73
2022-09-21T02:51:39.253Z,3.00
2022-09-21T02:54:07.040Z,3.07
2022-09-21T02:56:34.013Z,3.30
2022-09-21T02:59:02.541Z,3.30
2022-09-21T03:01:29.772Z,3.00
2022-09-21T03:03:56.203Z,4.90
2022-09-21T03:06:22.812Z,3.70
2022-09-21T03:08:49.283Z,4.00
2022-09-21T03:11:19.956Z,6.03
2022-09-21T03:13:46.812Z,6.30
2022-09-21T03:16:13.471Z,4.20
2022-09-21T03:18:40.338Z,3.90
2022-09-21T03:21:07.017Z,3.30
2022-09-21T03:23:33.630Z,2.97
2022-09-21T03:26:00.035Z,4.57
2022-09-21T03:28:26.776Z,3.60
2022-09-21T03:30:53.248Z,4.10
2022-09-21T03:33:20.275Z,3.40
2022-09-21T03:35:49.903Z,3.60
2022-09-21T03:38:16.936Z,3.30
2022-09-21T03:40:47.947Z,5.60
2022-09-21T03:43:14.689Z,3.47
2022-09-21T03:45:42.658Z,4.37
2022-09-21T03:48:10.724Z,4.80
2022-09-21T03:50:37.777Z,3.20
2022-09-21T03:53:04.427Z,3.17
2022-09-21T03:55:31.642Z,4.90
2022-09-21T03:57:58.138Z,3.13
2022-09-21T04:00:24.755Z,3.57
2022-09-21T04:02:51.232Z,3.23
2022-09-21T04:05:18.371Z,3.60
2022-09-21T04:07:48.153Z,5.50
2022-09-21T04:10:21.387Z,3.17
2022-09-21T04:12:47.950Z,3.67
2022-09-21T04:15:16.823Z,3.67
2022-09-21T04:17:43.538Z,4.50
2022-09-21T04:20:10.119Z,2.87
2022-09-21T04:22:39.945Z,3.07
2022-09-21T04:25:10.207Z,3.07
2022-09-21T04:27:36.748Z,3.03
2022-09-21T04:30:03.779Z,2.80
2022-09-21T04:32:30.215Z,3.40
2022-09-21T04:34:56.690Z,3.87
2022-09-21T04:37:23.287Z,4.90
2022-09-21T04:39:49.975Z,4.87
2022-09-21T04:42:16.625Z,4.43
2022-09-21T04:44:43.060Z,4.40
2022-09-21T04:47:09.636Z,5.47
2022-09-21T04:49:36.115Z,4.33
2022-09-21T04:52:03.273Z,5.30
2022-09-21T04:54:29.898Z,4.97
2022-09-21T04:56:56.941Z,4.23
2022-09-21T04:59:23.699Z,3.63
2022-09-21T05:01:50.589Z,3.77
2022-09-21T05:04:17.074Z,3.40
2022-09-21T05:06:43.550Z,4.57
2022-09-21T05:09:28.423Z,4.50
2022-09-21T05:11:54.954Z,4.20
2022-09-21T05:14:21.446Z,8.00
2022-09-21T05:16:49.838Z,6.43
2022-09-21T05:19:17.301Z,4.43
2022-09-21T05:21:43.925Z,5.23
2022-09-21T05:24:10.509Z,4.80
2022-09-21T05:26:37.669Z,5.30
2022-09-21T05:29:04.675Z,5.60
2022-09-21T05:31:41.571Z,4.83
2022-09-21T05:35:01.831Z,6.13
2022-09-21T05:37:57.521Z,6.60
2022-09-21T05:40:24.446Z,5.10
2022-09-21T05:42:51.677Z,6.80
2022-09-21T05:45:21.070Z,7.77
2022-09-21T05:48:05.511Z,5.70
2022-09-21T05:50:45.063Z,6.30
2022-09-21T05:53:20.425Z,7.00
2022-09-21T05:55:56.576Z,11.63
2022-09-21T05:58:48.242Z,7.17
2022-09-21T06:01:36.435Z,5.10
2022-09-21T06:04:03.482Z,7.70
2022-09-21T06:06:30.068Z,5.43
2022-09-21T06:08:56.539Z,4.90
2022-09-21T06:11:23.146Z,4.37
2022-09-21T06:13:49.829Z,4.50
2022-09-21T06:16:16.390Z,4.60
2022-09-21T06:18:43.444Z,5.80
2022-09-21T06:21:09.940Z,9.33
2022-09-21T06:23:36.915Z,9.37
2022-09-21T06:26:03.547Z,8.93
2022-09-21T06:28:30.003Z,6.60
2022-09-21T06:30:57.834Z,6.47
2022-09-21T06:33:24.687Z,7.03
2022-09-21T06:35:58.735Z,6.90
2022-09-21T06:38:26.254Z,6.87
2022-09-21T06:40:53.463Z,6.60
2022-09-21T06:43:20.530Z,6.30
2022-09-21T06:45:54.541Z,7.10
2022-09-21T06:48:21.686Z,7.03
2022-09-21T06:50:48.467Z,6.83
2022-09-21T06:53:15.601Z,7.83
2022-09-21T06:55:42.075Z,7.77
2022-09-21T06:58:08.846Z,7.80
2022-09-21T07:00:35.392Z,6.37
2022-09-21T07:03:01.926Z,6.37
2022-09-21T07:05:28.412Z,6.10
2022-09-21T07:07:58.899Z,5.00
2022-09-21T07:10:26.505Z,4.50
2022-09-21T07:12:53.158Z,4.30
2022-09-21T07:15:21.333Z,3.77
2022-09-21T07:17:51.730Z,4.10
2022-09-21T07:20:18.599Z,4.00
2022-09-21T07:22:45.136Z,3.67
2022-09-21T07:25:11.666Z,4.50
2022-09-21T07:27:38.434Z,3.10
2022-09-21T07:30:06.505Z,3.00
2022-09-21T07:32:33.226Z,3.40
2022-09-21T07:35:00.035Z,3.80
2022-09-21T07:37:27.338Z,2.90
2022-09-21T07:39:53.891Z,2.80
2022-09-21T07:42:22.728Z,3.73
2022-09-21T07:44:49.411Z,2.80
2022-09-21T07:47:16.255Z,3.90
2022-09-21T07:49:42.728Z,3.30
2022-09-21T07:52:11.174Z,3.53
2022-09-21T07:54:37.870Z,3.27
2022-09-21T07:57:23.250Z,3.37
2022-09-21T07:59:49.661Z,3.10
2022-09-21T08:02:16.321Z,2.63
2022-09-21T08:04:42.939Z,3.77
2022-09-21T08:07:09.397Z,4.10
2022-09-21T08:09:35.967Z,2.67
2022-09-21T08:12:02.518Z,3.40
2022-09-21T08:14:29.269Z,3.10
2022-09-21T08:16:55.896Z,2.43
2022-09-21T08:19:25.695Z,2.90
2022-09-21T08:21:57.206Z,2.80
2022-09-21T08:24:26.705Z,3.20
2022-09-21T08:26:53.705Z,2.43
2022-09-21T08:29:20.340Z,3.63
2022-09-21T08:31:47.076Z,3.13
2022-09-21T08:34:14.242Z,4.13
2022-09-21T08:36:41.111Z,2.73
2022-09-21T08:39:08.575Z,3.03
2022-09-21T08:42:04.274Z,2.37
2022-09-21T08:44:39.636Z,3.27
2022-09-21T08:47:40.042Z,3.20
2022-09-21T08:50:31.999Z,3.53
2022-09-21T08:53:03.676Z,2.93
2022-09-21T08:55:30.281Z,3.40
2022-09-21T08:57:57.031Z,2.97
2022-09-21T09:00:23.654Z,3.10
2022-09-21T09:03:24.587Z,3.53
2022-09-21T09:06:05.217Z,3.37
2022-09-21T09:08:56.325Z,3.30
2022-09-21T09:11:37.948Z,3.40
2022-09-21T09:14:12.291Z,3.07
2022-09-21T09:16:58.444Z,3.53
2022-09-21T09:19:46.092Z,3.00
2022-09-21T09:22:16.911Z,2.90
2022-09-21T09:24:50.207Z,3.47
2022-09-21T09:27:23.982Z,3.40
2022-09-21T09:30:13.596Z,3.47
2022-09-21T09:32:45.457Z,3.27
2022-09-21T09:35:38.974Z,3.70
2022-09-21T09:38:14.860Z,3.50
2022-09-21T09:40:52.565Z,2.60
2022-09-21T09:43:44.195Z,3.33
2022-09-21T09:46:29.632Z,3.17
2022-09-21T09:49:14.971Z,3.10
2022-09-21T09:51:42.940Z,3.33
2022-09-21T09:54:14.963Z,4.03
2022-09-21T09:56:42.351Z,3.03
2022-09-21T09:59:36.945Z,3.77
2022-09-21T10:02:11.164Z,3.13
2022-09-21T10:04:54.720Z,3.40
2022-09-21T10:07:33.862Z,3.17
2022-09-21T10:10:00.517Z,3.10
2022-09-21T10:12:27.925Z,3.47
2022-09-21T10:14:57.146Z,3.10
2022-09-21T10:17:24.804Z,3.37
2022-09-21T10:20:04.193Z,3.77
2022-09-21T10:22:30.722Z,3.00
2022-09-21T10:24:59.607Z,4.10
2022-09-21T10:27:30.231Z,4.00
2022-09-21T10:29:57.505Z,3.33
2022-09-21T10:32:28.200Z,3.00
2022-09-21T10:35:15.703Z,3.47
2022-09-21T10:37:53.630Z,3.70
2022-09-21T10:40:20.224Z,4.20
2022-09-21T10:42:48.887Z,3.80
2022-09-21T10:45:23.781Z,2.80
2022-09-21T10:47:57.399Z,4.00
2022-09-21T10:50:36.622Z,3.77
2022-09-21T10:53:09.005Z,4.50
2022-09-21T10:55:52.790Z,3.20
2022-09-21T10:58:25.043Z,3.17
2022-09-21T11:00:52.965Z,4.27
2022-09-21T11:03:34.308Z,3.87
2022-09-21T11:06:09.641Z,3.00
2022-09-21T11:08:50.928Z,3.13
2022-09-21T11:11:29.406Z,3.80
2022-09-21T11:14:05.167Z,3.37
2022-09-21T11:16:37.124Z,4.17
2022-09-21T11:19:15.999Z,3.63
2022-09-21T11:22:05.479Z,3.27
2022-09-21T11:24:46.780Z,2.70
2022-09-21T11:27:45.703Z,2.80
2022-09-21T11:30:14.607Z,2.97
2022-09-21T11:33:00.846Z,2.83
2022-09-21T11:35:58.739Z,2.50
2022-09-21T11:38:34.300Z,2.03
2022-09-21T11:41:13.972Z,2.43
2022-09-21T11:43:57.765Z,2.87
2022-09-21T11:46:35.476Z,2.40
2022-09-21T11:49:39.850Z,2.17
2022-09-21T11:52:35.059Z,2.30
2022-09-21T11:55:23.918Z,2.90
2022-09-21T11:58:01.008Z,2.80
2022-09-21T12:00:32.093Z,2.40
2022-09-21T12:03:04.272Z,3.13
2022-09-21T12:06:17.876Z,2.87
2022-09-21T12:08:59.515Z,3.00
2022-09-21T12:11:35.092Z,3.00
2022-09-21T12:14:22.424Z,2.63
2022-09-21T12:17:11.108Z,2.90
2022-09-21T12:19:49.344Z,2.17
2022-09-21T12:22:19.688Z,2.50
2022-09-21T12:25:02.791Z,3.53
2022-09-21T12:27:41.491Z,2.27
2022-09-21T12:30:19.561Z,2.30
2022-09-21T12:32:53.844Z,3.03
2022-09-21T12:35:28.515Z,2.80
2022-09-21T12:38:05.158Z,2.40
2022-09-21T12:40:38.101Z,2.43
2022-09-21T12:43:31.796Z,2.60
2022-09-21T12:46:02.376Z,2.60
2022-09-21T12:48:38.929Z,2.30
2022-09-21T12:51:36.543Z,2.47
2022-09-21T12:54:20.830Z,2.80
2022-09-21T12:56:53.983Z,3.67
2022-09-21T12:59:45.379Z,2.80
2022-09-21T13:02:24.379Z,2.37
2022-09-21T13:05:04.603Z,2.77
2022-09-21T13:07:46.255Z,2.50
2022-09-21T13:10:20.215Z,3.00
2022-09-21T13:12:48.945Z,2.90
2022-09-21T13:15:24.226Z,2.63
2022-09-21T13:18:05.991Z,2.50
2022-09-21T13:20:40.153Z,3.67
2022-09-21T13:23:16.191Z,3.10
2022-09-21T13:25:48.888Z,3.23
2022-09-21T13:28:16.683Z,2.60
2022-09-21T13:30:48.976Z,3.80
2022-09-21T13:33:23.075Z,3.70
2022-09-21T13:35:52.535Z,4.03
2022-09-21T13:38:57.903Z,4.40
2022-09-21T13:41:45.465Z,3.07
2022-09-21T13:44:36.088Z,3.43
2022-09-21T13:47:02.623Z,3.43
2022-09-21T13:49:34.096Z,3.07
2022-09-21T13:52:07.488Z,3.90
2022-09-21T13:54:59.663Z,3.60
2022-09-21T13:57:28.423Z,3.10
2022-09-21T14:00:13.187Z,2.93
2022-09-21T14:02:42.970Z,3.03
2022-09-21T14:05:34.411Z,2.73
2022-09-21T14:08:03.831Z,3.20
2022-09-21T14:10:32.663Z,4.03
2022-09-21T14:13:01.121Z,2.97
2022-09-21T14:15:34.060Z,3.00
2022-09-21T14:18:16.342Z,3.30
2022-09-21T14:21:11.052Z,3.80
2022-09-21T14:23:38.843Z,3.50
2022-09-21T14:26:31.443Z,3.13
2022-09-21T14:28:58.461Z,2.60
2022-09-21T14:31:29.184Z,2.00
2022-09-21T14:33:59.572Z,2.47
2022-09-21T14:36:43.431Z,3.30
2022-09-21T14:39:36.227Z,3.60
2022-09-21T14:42:17.287Z,3.23
2022-09-21T14:44:44.690Z,3.50
2022-09-21T14:47:39.356Z,2.37
2022-09-21T14:50:38.921Z,3.40
2022-09-21T14:53:43.007Z,2.17
2022-09-21T14:56:40.051Z,2.97
2022-09-21T14:59:38.592Z,3.13
2022-09-21T15:02:20.889Z,3.10
2022-09-21T15:04:54.516Z,2.93
2022-09-21T15:07:48.595Z,2.80
2022-09-21T15:10:55.415Z,3.47
2022-09-21T15:13:46.587Z,3.40
2022-09-21T15:16:36.796Z,3.63
2022-09-21T15:19:20.418Z,3.60
2022-09-21T15:21:49.106Z,3.60
2022-09-21T15:24:25.848Z,2.70
2022-09-21T15:26:56.148Z,2.77
2022-09-21T15:29:31.502Z,3.10
2022-09-21T15:31:59.710Z,2.57
2022-09-21T15:34:26.561Z,2.70
2022-09-21T15:36:53.102Z,3.10
2022-09-21T15:39:30.749Z,3.13
2022-09-21T15:42:09.275Z,3.40
2022-09-21T15:44:37.527Z,4.70
2022-09-21T15:47:08.305Z,11.30
2022-09-21T15:49:41.284Z,19.70
2022-09-21T15:52:18.274Z,3.63
2022-09-21T15:54:48.998Z,3.90
2022-09-21T15:57:38.735Z,3.57
2022-09-21T16:00:31.391Z,2.83
2022-09-21T16:03:06.955Z,2.90
2022-09-21T16:05:44.278Z,2.23
2022-09-21T16:08:33.598Z,3.23
2022-09-21T16:11:28.296Z,2.83
2022-09-21T16:14:32.725Z,3.10
2022-09-21T16:17:27.123Z,2.27
2022-09-21T16:19:53.939Z,3.07
2022-09-21T16:22:44.231Z,4.10
2022-09-21T16:25:34.734Z,5.30
2022-09-21T16:28:10.182Z,3.80
2022-09-21T16:30:53.585Z,3.67
2022-09-21T16:33:38.818Z,4.67
2022-09-21T16:36:34.121Z,4.30
2022-09-21T16:39:03.856Z,4.20
2022-09-21T16:41:43.501Z,3.40
2022-09-21T16:44:19.927Z,5.93
2022-09-21T16:46:54.181Z,5.93
2022-09-21T16:49:22.058Z,4.10
2022-09-21T16:51:50.071Z,3.20
2022-09-21T16:54:18.482Z,3.60
2022-09-21T16:56:46.414Z,4.03
2022-09-21T16:59:16.437Z,5.40
2022-09-21T17:01:43.678Z,4.50
2022-09-21T17:04:13.996Z,3.40
2022-09-21T17:06:40.540Z,3.67
2022-09-21T17:09:20.850Z,4.57
2022-09-21T17:11:48.085Z,7.67
2022-09-21T17:14:16.199Z,7.80
2022-09-21T17:16:45.552Z,5.70
2022-09-21T17:19:12.312Z,4.37
2022-09-21T17:21:38.792Z,5.70
2022-09-21T17:24:06.721Z,6.00
2022-09-21T17:26:34.536Z,6.63
2022-09-21T17:29:05.282Z,8.27
2022-09-21T17:31:32.660Z,3.80
2022-09-21T17:34:09.161Z,3.40
2022-09-21T17:36:36.778Z,3.37
2022-09-21T17:39:03.911Z,3.53
2022-09-21T17:41:52.630Z,3.30
2022-09-21T17:44:34.596Z,6.50
2022-09-21T17:47:05.162Z,7.80
2022-09-21T17:49:31.721Z,6.53
2022-09-21T17:52:16.796Z,4.83
2022-09-21T17:54:43.365Z,6.23
2022-09-21T17:57:28.190Z,8.00
2022-09-21T18:00:11.698Z,8.33
2022-09-21T18:02:38.436Z,11.07
2022-09-21T18:05:16.038Z,11.30
2022-09-21T18:07:42.817Z,12.63
2022-09-21T18:10:13.032Z,12.30
2022-09-21T18:12:51.811Z,11.03
2022-09-21T18:15:25.101Z,23.50
2022-09-21T18:18:00.857Z,13.27
2022-09-21T18:20:54.295Z,9.67
2022-09-21T18:23:43.865Z,8.50
2022-09-21T18:26:16.417Z,10.37
2022-09-21T18:28:45.979Z,17.80
2022-09-21T18:31:25.578Z,11.87
2022-09-21T18:34:29.720Z,10.37
2022-09-21T18:37:15.845Z,10.50
2022-09-21T18:39:53.339Z,9.73
2022-09-21T18:42:59.124Z,9.97
2022-09-21T18:45:56.901Z,8.50
2022-09-21T18:48:53.851Z,5.23
2022-09-21T18:51:38.633Z,4.50
2022-09-21T18:54:05.375Z,4.27
2022-09-21T18:56:35.253Z,5.47
2022-09-21T18:59:02.812Z,5.13
2022-09-21T19:01:32.921Z,5.37
2022-09-21T19:04:00.612Z,7.37
2022-09-21T19:06:33.171Z,6.17
2022-09-21T19:09:23.291Z,7.07
2022-09-21T19:12:11.843Z,6.10
2022-09-21T19:15:00.244Z,5.23
2022-09-21T19:17:49.244Z,8.40
2022-09-21T19:20:35.175Z,6.67
2022-09-21T19:23:13.804Z,8.30
2022-09-21T19:25:49.518Z,8.80
2022-09-21T19:28:19.505Z,8.30
2022-09-21T19:30:49.829Z,27.57
2022-09-21T19:33:48.870Z,21.60
2022-09-21T19:36:16.658Z,12.60
2022-09-21T19:38:43.284Z,12.17
2022-09-21T19:41:44.989Z,6.60
2022-09-21T19:44:32.575Z,4.90
2022-09-21T19:47:24.984Z,4.37
2022-09-21T19:49:56.342Z,3.57
2022-09-21T19:52:31.969Z,4.00
2022-09-21T19:55:17.598Z,3.70
2022-09-21T19:58:02.992Z,4.10
2022-09-21T20:00:30.195Z,3.97
2022-09-21T20:03:05.818Z,3.93
2022-09-21T20:05:45.852Z,3.80
2022-09-21T20:08:30.047Z,4.63
2022-09-21T20:11:15.743Z,4.70
2022-09-21T20:14:02.983Z,6.40
2022-09-21T20:16:54.483Z,5.57
2022-09-21T20:19:33.626Z,8.10
2022-09-21T20:22:05.062Z,6.47
2022-09-21T20:24:42.551Z,7.27
2022-09-21T20:27:29.893Z,7.73
2022-09-21T20:29:56.352Z,5.97
2022-09-21T20:32:23.258Z,5.17
2022-09-21T20:34:50.513Z,4.47
2022-09-21T20:37:21.279Z,4.87
2022-09-21T20:39:48.187Z,5.67
2022-09-21T20:42:23.542Z,4.77
2022-09-21T20:44:50.932Z,4.80
2022-09-21T20:47:19.044Z,4.50
2022-09-21T20:49:46.975Z,4.07
2022-09-21T20:52:16.693Z,3.30
2022-09-21T20:54:48.947Z,3.77
2022-09-21T20:57:16.426Z,4.17
2022-09-21T20:59:42.853Z,5.30
2022-09-21T21:02:11.616Z,4.57
2022-09-21T21:04:38.142Z,4.53
2022-09-21T21:07:04.894Z,5.30
2022-09-21T21:09:31.916Z,5.23
2022-09-21T21:11:59.146Z,4.83
2022-09-21T21:14:29.987Z,4.50
2022-09-21T21:16:56.554Z,5.10
2022-09-21T21:19:23.394Z,4.80
2022-09-21T21:21:49.887Z,5.00
2022-09-21T21:24:35.022Z,4.93
2022-09-21T21:27:03.062Z,4.60
2022-09-21T21:29:30.553Z,4.40
2022-09-21T21:31:57.293Z,3.77
2022-09-21T21:34:23.795Z,4.70
2022-09-21T21:36:50.385Z,4.23
2022-09-21T21:39:16.867Z,4.20
2022-09-21T21:41:43.676Z,4.10
2022-09-21T21:44:11.470Z,3.20
2022-09-21T21:46:38.046Z,3.50
2022-09-21T21:49:04.986Z,3.83
2022-09-21T21:51:31.598Z,4.53
2022-09-21T21:53:58.202Z,4.93
2022-09-21T21:56:26.497Z,5.97
2022-09-21T21:58:54.012Z,7.40
2022-09-21T22:01:23.932Z,6.70
2022-09-21T22:03:57.815Z,7.80
2022-09-21T22:06:25.399Z,6.53
2022-09-21T22:08:51.984Z,5.60
2022-09-21T22:11:20.008Z,5.20
2022-09-21T22:13:46.696Z,4.90
2022-09-21T22:16:15.439Z,4.10
2022-09-21T22:18:42.752Z,4.80
2022-09-21T22:21:22.668Z,4.50
2022-09-21T22:24:00.561Z,4.20
2022-09-21T22:26:28.743Z,5.00
2022-09-21T22:29:00.439Z,4.40
2022-09-21T22:31:29.573Z,3.77
2022-09-21T22:33:56.166Z,3.97
2022-09-21T22:36:24.423Z,4.43
2022-09-21T22:38:51.236Z,3.77
2022-09-21T22:41:20.207Z,3.53
2022-09-21T22:43:48.156Z,4.13
2022-09-21T22:46:18.176Z,3.97
2022-09-21T22:48:45.301Z,4.60
2022-09-21T22:51:12.910Z,3.90
2022-09-21T22:53:39.725Z,3.30
2022-09-21T22:56:16.642Z,2.87
2022-09-21T22:58:44.889Z,3.20
2022-09-21T23:01:25.422Z,4.63
2022-09-21T23:03:54.825Z,4.77
2022-09-21T23:06:22.654Z,6.13
2022-09-21T23:08:50.747Z,3.50
2022-09-21T23:11:26.577Z,3.43
2022-09-21T23:13:54.197Z,3.53
2022-09-21T23:16:20.984Z,3.50
2022-09-21T23:18:48.567Z,3.30
2022-09-21T23:21:17.429Z,3.70
2022-09-21T23:23:44.695Z,3.33
2022-09-21T23:26:14.147Z,3.77
2022-09-21T23:28:42.648Z,3.13
2022-09-21T23:31:11.905Z,2.70
2022-09-21T23:33:43.836Z,3.23
2022-09-21T23:36:12.522Z,3.10
2022-09-21T23:38:39.689Z,3.00
2022-09-21T23:41:06.242Z,4.70
2022-09-21T23:43:33.122Z,2.83
2022-09-21T23:45:59.645Z,4.57
2022-09-21T23:48:26.985Z,4.30
2022-09-21T23:50:55.050Z,3.60
2022-09-21T23:53:22.290Z,3.80
2022-09-21T23:55:49.055Z,3.77
2022-09-21T23:58:16.018Z,4.00
